createdAt,value
2022-12-01T00:02:12.518Z,-17.25
2022-12-01T00:05:15.716Z,-17.18
2022-12-01T00:08:20.268Z,-17.16
2022-12-01T00:11:23.366Z,-17.14
2022-12-01T00:14:26.439Z,-17.11
2022-12-01T00:17:30.792Z,-17.10
2022-12-01T00:20:35.432Z,-17.05
2022-12-01T00:23:38.410Z,-16.97
2022-12-01T00:26:41.488Z,-16.89
2022-12-01T00:29:44.596Z,-16.81
2022-12-01T00:32:48.129Z,-16.71
2022-12-01T00:35:51.048Z,-16.63
2022-12-01T00:38:55.809Z,-16.53
2022-12-01T00:41:58.823Z,-16.45
2022-12-01T00:45:01.758Z,-16.39
2022-12-01T00:48:04.857Z,-16.32
2022-12-01T00:51:07.976Z,-16.19
2022-12-01T00:54:11.060Z,-16.03
2022-12-01T00:57:14.549Z,-15.98
2022-12-01T01:00:18.270Z,-15.92
2022-12-01T01:03:21.186Z,-15.83
2022-12-01T01:06:25.022Z,-15.78
2022-12-01T01:09:28.275Z,-15.74
2022-12-01T01:12:31.685Z,-15.72
2022-12-01T01:15:35.153Z,-15.68
2022-12-01T01:18:38.170Z,-15.60
2022-12-01T01:21:41.262Z,-15.49
2022-12-01T01:24:44.380Z,-15.44
2022-12-01T01:27:47.370Z,-15.43
2022-12-01T01:30:53.698Z,-15.42
2022-12-01T01:33:57.586Z,-15.41
2022-12-01T01:37:00.563Z,-15.39
2022-12-01T01:40:03.781Z,-15.36
2022-12-01T01:43:16.706Z,-15.34
2022-12-01T01:46:22.350Z,-15.28
2022-12-01T01:49:25.438Z,-15.25
2022-12-01T01:52:29.228Z,-15.19
2022-12-01T01:55:35.457Z,-15.20
2022-12-01T01:58:40.534Z,-15.15
2022-12-01T02:01:43.708Z,-15.05
2022-12-01T02:04:49.667Z,-14.99
2022-12-01T02:07:55.853Z,-14.88
2022-12-01T02:11:28.865Z,-14.80
2022-12-01T02:14:56.501Z,-14.74
2022-12-01T02:18:11.965Z,-14.58
2022-12-01T02:21:38.132Z,-14.46
2022-12-01T02:25:31.853Z,-14.32
2022-12-01T02:28:52.633Z,-14.15
2022-12-01T02:32:03.454Z,-14.05
2022-12-01T02:35:57.402Z,-14.00
2022-12-01T02:39:11.590Z,-13.86
2022-12-01T02:42:44.025Z,-13.70
2022-12-01T02:45:51.199Z,-13.58
2022-12-01T02:48:58.720Z,-13.52
2022-12-01T02:52:03.423Z,-13.44
2022-12-01T02:55:06.816Z,-13.32
2022-12-01T02:58:16.482Z,-13.17
2022-12-01T03:01:22.328Z,-13.05
2022-12-01T03:04:37.783Z,-12.88
2022-12-01T03:07:44.407Z,-12.71
2022-12-01T03:10:57.163Z,-12.55
2022-12-01T03:14:33.789Z,-12.45
2022-12-01T03:17:47.197Z,-12.29
2022-12-01T03:21:14.201Z,-12.11
2022-12-01T03:24:24.979Z,-12.11
2022-12-01T03:27:31.525Z,-12.09
2022-12-01T03:30:38.578Z,-12.18
2022-12-01T03:33:47.381Z,-12.19
2022-12-01T03:36:58.804Z,-12.18
2022-12-01T03:40:06.978Z,-12.32
2022-12-01T03:43:17.134Z,-12.33
2022-12-01T03:47:00.340Z,-12.27
2022-12-01T03:50:04.807Z,-12.14
2022-12-01T03:53:33.592Z,-12.15
2022-12-01T03:56:47.129Z,-12.11
2022-12-01T03:59:50.612Z,-12.16
2022-12-01T04:02:58.915Z,-12.07
2022-12-01T04:06:02.232Z,-12.14
2022-12-01T04:09:05.389Z,-12.03
2022-12-01T04:12:28.949Z,-12.11
2022-12-01T04:15:32.128Z,-12.21
2022-12-01T04:18:35.179Z,-12.20
2022-12-01T04:21:40.822Z,-12.14
2022-12-01T04:24:43.978Z,-12.12
2022-12-01T04:27:47.275Z,-12.13
2022-12-01T04:30:50.351Z,-12.13
2022-12-01T04:33:56.379Z,-12.17
2022-12-01T04:36:59.538Z,-12.13
2022-12-01T04:40:02.639Z,-12.07
2022-12-01T04:43:05.678Z,-11.91
2022-12-01T04:46:09.423Z,-11.99
2022-12-01T04:49:12.400Z,-11.96
2022-12-01T04:52:15.612Z,-12.07
2022-12-01T04:55:19.643Z,-12.00
2022-12-01T04:58:22.660Z,-11.94
2022-12-01T05:01:25.664Z,-11.92
2022-12-01T05:04:28.735Z,-11.91
2022-12-01T05:07:31.712Z,-11.91
2022-12-01T05:10:38.837Z,-11.86
2022-12-01T05:13:45.079Z,-11.95
2022-12-01T05:16:48.236Z,-12.05
2022-12-01T05:20:09.802Z,-12.05
2022-12-01T05:23:16.747Z,-12.04
2022-12-01T05:26:20.236Z,-12.00
2022-12-01T05:29:23.305Z,-12.12
2022-12-01T05:32:26.418Z,-12.23
2022-12-01T05:35:29.677Z,-12.38
2022-12-01T05:38:33.467Z,-12.43
2022-12-01T05:41:36.626Z,-12.42
2022-12-01T05:44:39.640Z,-12.39
2022-12-01T05:47:42.789Z,-12.39
2022-12-01T05:50:45.926Z,-12.36
2022-12-01T05:53:49.387Z,-12.35
2022-12-01T05:56:52.465Z,-12.42
2022-12-01T05:59:55.527Z,-12.42
2022-12-01T06:02:58.711Z,-12.43
2022-12-01T06:06:01.863Z,-12.42
2022-12-01T06:09:04.913Z,-12.42
2022-12-01T06:12:08.189Z,-12.47
2022-12-01T06:15:12.987Z,-12.53
2022-12-01T06:18:16.208Z,-12.51
2022-12-01T06:21:19.415Z,-12.57
2022-12-01T06:24:22.520Z,-12.57
2022-12-01T06:27:25.662Z,-12.50
2022-12-01T06:30:28.712Z,-12.54
2022-12-01T06:33:32.757Z,-12.53
2022-12-01T06:36:36.011Z,-12.53
2022-12-01T06:39:39.320Z,-12.50
2022-12-01T06:42:42.412Z,-12.55
2022-12-01T06:45:45.828Z,-12.56
2022-12-01T06:48:49.843Z,-12.60
2022-12-01T06:51:52.925Z,-12.56
2022-12-01T06:54:56.009Z,-12.54
2022-12-01T06:58:02.324Z,-12.56
2022-12-01T07:01:10.375Z,-12.54
2022-12-01T07:04:13.669Z,-12.60
2022-12-01T07:07:16.724Z,-12.61
2022-12-01T07:10:19.750Z,-12.58
2022-12-01T07:13:22.724Z,-12.61
2022-12-01T07:16:26.657Z,-12.64
2022-12-01T07:19:29.715Z,-12.67
2022-12-01T07:22:33.133Z,-12.69
2022-12-01T07:25:36.186Z,-12.70
2022-12-01T07:28:39.275Z,-12.71
2022-12-01T07:31:42.340Z,-12.69
2022-12-01T07:34:45.330Z,-12.70
2022-12-01T07:37:48.409Z,-12.70
2022-12-01T07:40:51.614Z,-12.76
2022-12-01T07:43:56.282Z,-12.78
2022-12-01T07:46:59.717Z,-12.78
2022-12-01T07:50:02.763Z,-12.75
2022-12-01T07:53:05.882Z,-12.75
2022-12-01T07:56:09.293Z,-12.71
2022-12-01T07:59:12.875Z,-12.68
2022-12-01T08:02:16.102Z,-12.69
2022-12-01T08:05:19.355Z,-12.59
2022-12-01T08:08:22.437Z,-12.60
2022-12-01T08:11:27.774Z,-12.62
2022-12-01T08:14:30.838Z,-12.70
2022-12-01T08:17:34.029Z,-12.73
2022-12-01T08:20:37.134Z,-12.75
2022-12-01T08:23:42.700Z,-12.48
2022-12-01T08:26:45.678Z,-12.37
2022-12-01T08:29:48.940Z,-12.24
2022-12-01T08:32:55.455Z,-12.19
2022-12-01T08:36:02.911Z,-12.32
2022-12-01T08:39:08.252Z,-12.45
2022-12-01T08:42:11.291Z,-12.58
2022-12-01T08:45:14.627Z,-12.63
2022-12-01T08:48:17.758Z,-12.70
2022-12-01T08:51:20.819Z,-12.75
2022-12-01T08:54:23.918Z,-12.77
2022-12-01T08:57:27.318Z,-12.74
2022-12-01T09:00:30.489Z,-12.75
2022-12-01T09:03:34.381Z,-12.75
2022-12-01T09:06:43.462Z,-12.80
2022-12-01T09:09:47.094Z,-12.82
2022-12-01T09:12:50.346Z,-12.83
2022-12-01T09:15:58.513Z,-12.80
2022-12-01T09:19:01.713Z,-12.77
2022-12-01T09:22:04.845Z,-12.75
2022-12-01T09:25:15.196Z,-12.75
2022-12-01T09:28:18.812Z,-12.77
2022-12-01T09:31:24.056Z,-12.79
2022-12-01T09:34:28.054Z,-12.80
2022-12-01T09:37:31.201Z,-12.75
2022-12-01T09:40:39.925Z,-12.72
2022-12-01T09:43:48.170Z,-12.72
2022-12-01T09:46:56.942Z,-12.68
2022-12-01T09:50:19.513Z,-12.65
2022-12-01T09:53:26.937Z,-12.61
2022-12-01T09:56:41.907Z,-12.63
2022-12-01T09:59:46.539Z,-12.65
2022-12-01T10:02:59.707Z,-12.68
2022-12-01T10:06:27.348Z,-12.64
2022-12-01T10:09:44.699Z,-12.67
2022-12-01T10:12:48.554Z,-12.65
2022-12-01T10:16:56.115Z,-12.63
2022-12-01T10:20:34.371Z,-12.62
2022-12-01T10:23:55.592Z,-12.63
2022-12-01T10:27:26.823Z,-12.63
2022-12-01T10:30:30.414Z,-12.65
2022-12-01T10:33:44.036Z,-12.65
2022-12-01T10:36:47.707Z,-12.65
2022-12-01T10:39:53.611Z,-12.66
2022-12-01T10:42:56.755Z,-12.63
2022-12-01T10:46:06.763Z,-12.60
2022-12-01T10:49:15.697Z,-12.63
2022-12-01T10:52:40.122Z,-12.59
2022-12-01T10:55:47.964Z,-12.64
2022-12-01T10:58:54.766Z,-12.65
2022-12-01T11:02:00.206Z,-12.67
2022-12-01T11:05:06.892Z,-12.69
2022-12-01T11:08:26.520Z,-12.67
2022-12-01T11:11:33.466Z,-12.66
2022-12-01T11:14:51.842Z,-12.66
2022-12-01T11:18:08.526Z,-12.65
2022-12-01T11:21:16.299Z,-12.63
2022-12-01T11:24:39.583Z,-12.58
2022-12-01T11:27:53.483Z,-12.54
2022-12-01T11:31:10.952Z,-12.54
2022-12-01T11:34:23.530Z,-12.53
2022-12-01T11:37:34.482Z,-12.49
2022-12-01T11:40:49.301Z,-12.46
2022-12-01T11:47:23.988Z,-12.43
2022-12-01T11:50:30.912Z,-12.44
2022-12-01T11:53:39.904Z,-12.44
2022-12-01T11:56:44.668Z,-12.44
2022-12-01T11:59:48.337Z,-12.43
2022-12-01T12:03:10.360Z,-12.42
2022-12-01T12:10:06.758Z,-12.44
2022-12-01T12:13:33.981Z,-12.47
2022-12-01T12:17:14.838Z,-12.45
2022-12-01T12:20:36.651Z,-12.46
2022-12-01T12:24:10.741Z,-12.41
2022-12-01T12:27:27.901Z,-12.40
2022-12-01T12:30:32.894Z,-12.39
2022-12-01T12:33:59.362Z,-12.44
2022-12-01T12:37:17.867Z,-12.41
2022-12-01T12:40:38.572Z,-12.37
2022-12-01T12:43:44.422Z,-12.35
2022-12-01T12:47:17.377Z,-12.34
2022-12-01T12:50:29.283Z,-12.33
2022-12-01T12:53:47.354Z,-12.27
2022-12-01T12:56:58.499Z,-12.28
2022-12-01T13:00:29.494Z,-12.23
2022-12-01T13:03:53.998Z,-12.21
2022-12-01T13:07:33.806Z,-12.22
2022-12-01T13:10:58.748Z,-12.20
2022-12-01T13:14:03.845Z,-12.19
2022-12-01T13:17:17.155Z,-12.18
2022-12-01T13:20:25.686Z,-12.19
2022-12-01T13:23:29.504Z,-12.22
2022-12-01T13:26:37.080Z,-12.21
2022-12-01T13:29:45.721Z,-12.24
2022-12-01T13:32:49.676Z,-12.27
2022-12-01T13:36:22.513Z,-12.24
2022-12-01T13:39:22.555Z,-12.23
2022-12-01T13:42:27.773Z,-12.27
2022-12-01T13:45:36.251Z,-12.32
2022-12-01T13:48:42.370Z,-12.41
2022-12-01T13:52:22.457Z,-12.44
2022-12-01T13:55:29.821Z,-12.43
2022-12-01T13:58:35.930Z,-12.43
2022-12-01T14:01:47.536Z,-12.44
2022-12-01T14:04:50.852Z,-12.45
2022-12-01T14:07:55.268Z,-12.52
2022-12-01T14:11:02.395Z,-12.58
2022-12-01T14:14:26.021Z,-12.61
2022-12-01T14:17:38.629Z,-12.69
2022-12-01T14:20:47.251Z,-12.69
2022-12-01T14:24:12.269Z,-12.75
2022-12-01T14:27:15.323Z,-12.77
2022-12-01T14:30:43.038Z,-12.83
2022-12-01T14:33:55.728Z,-12.85
2022-12-01T14:37:18.980Z,-12.91
2022-12-01T14:40:25.747Z,-12.94
2022-12-01T14:43:48.228Z,-12.96
2022-12-01T14:47:03.254Z,-12.96
2022-12-01T14:50:30.902Z,-12.94
2022-12-01T14:53:37.088Z,-12.97
2022-12-01T14:56:41.675Z,-12.99
2022-12-01T14:59:45.473Z,-13.03
2022-12-01T15:02:54.940Z,-13.02
2022-12-01T15:05:57.991Z,-12.99
2022-12-01T15:09:33.964Z,-12.99
2022-12-01T15:12:37.809Z,-12.98
2022-12-01T15:15:57.596Z,-12.96
2022-12-01T15:19:00.784Z,-12.94
2022-12-01T15:22:16.275Z,-12.95
2022-12-01T15:25:21.224Z,-12.98
2022-12-01T15:28:35.630Z,-13.01
2022-12-01T15:31:38.882Z,-13.07
2022-12-01T15:34:50.311Z,-13.06
2022-12-01T15:37:54.404Z,-13.06
2022-12-01T15:44:23.810Z,-13.14
2022-12-01T15:47:47.823Z,-13.14
2022-12-01T15:51:02.825Z,-13.18
2022-12-01T15:54:06.085Z,-13.19
2022-12-01T15:57:09.697Z,-13.21
2022-12-01T16:00:20.066Z,-13.17
2022-12-01T16:03:23.327Z,-13.20
2022-12-01T16:06:31.246Z,-13.21
2022-12-01T16:09:56.391Z,-13.22
2022-12-01T16:13:36.792Z,-13.25
2022-12-01T16:16:47.981Z,-13.24
2022-12-01T16:20:18.620Z,-13.19
2022-12-01T16:23:26.966Z,-13.20
2022-12-01T16:26:30.750Z,-13.19
2022-12-01T16:29:48.090Z,-13.12
2022-12-01T16:32:51.785Z,-13.12
2022-12-01T16:35:55.723Z,-13.09
2022-12-01T16:38:58.825Z,-13.12
2022-12-01T16:42:02.088Z,-13.14
2022-12-01T16:45:05.431Z,-13.14
2022-12-01T16:48:09.535Z,-13.16
2022-12-01T16:51:17.290Z,-13.21
2022-12-01T16:54:27.067Z,-13.20
2022-12-01T16:57:30.161Z,-13.28
2022-12-01T17:00:34.068Z,-13.33
2022-12-01T17:03:38.263Z,-13.40
2022-12-01T17:06:41.601Z,-13.44
2022-12-01T17:09:44.657Z,-13.58
2022-12-01T17:12:47.743Z,-13.61
2022-12-01T17:15:53.009Z,-13.67
2022-12-01T17:18:56.509Z,-13.73
2022-12-01T17:21:59.692Z,-13.79
2022-12-01T17:25:03.159Z,-13.83
2022-12-01T17:28:06.309Z,-13.85
2022-12-01T17:31:10.295Z,-13.84
2022-12-01T17:34:13.410Z,-13.81
2022-12-01T17:37:20.874Z,-13.80
2022-12-01T17:40:24.461Z,-13.84
2022-12-01T17:43:27.547Z,-13.80
2022-12-01T17:46:30.857Z,-13.80
2022-12-01T17:49:37.301Z,-13.77
2022-12-01T17:52:40.581Z,-13.77
2022-12-01T17:55:43.752Z,-13.80
2022-12-01T17:58:47.026Z,-13.82
2022-12-01T18:01:50.197Z,-13.85
2022-12-01T18:04:53.617Z,-13.91
2022-12-01T18:07:57.067Z,-13.97
2022-12-01T18:11:08.413Z,-14.00
2022-12-01T18:14:11.670Z,-14.03
2022-12-01T18:17:14.774Z,-14.08
2022-12-01T18:20:18.673Z,-14.10
2022-12-01T18:23:21.748Z,-14.14
2022-12-01T18:26:26.209Z,-14.18
2022-12-01T18:29:29.445Z,-14.23
2022-12-01T18:32:32.543Z,-14.25
2022-12-01T18:35:35.571Z,-14.30
2022-12-01T18:38:39.890Z,-14.29
2022-12-01T18:41:44.057Z,-14.28
2022-12-01T18:44:47.130Z,-14.25
2022-12-01T18:47:50.172Z,-14.29
2022-12-01T18:50:59.138Z,-14.35
2022-12-01T18:54:05.067Z,-14.36
2022-12-01T18:57:08.208Z,-14.33
2022-12-01T19:00:13.408Z,-14.31
2022-12-01T19:03:16.576Z,-14.29
2022-12-01T19:06:19.786Z,-14.29
2022-12-01T19:09:23.418Z,-14.26
2022-12-01T19:12:26.503Z,-14.30
2022-12-01T19:15:29.675Z,-14.33
2022-12-01T19:18:33.274Z,-14.34
2022-12-01T19:21:36.879Z,-14.34
2022-12-01T19:24:39.961Z,-14.30
2022-12-01T19:27:43.351Z,-14.28
2022-12-01T19:30:48.307Z,-14.28
2022-12-01T19:33:53.293Z,-14.25
2022-12-01T19:36:57.434Z,-14.19
2022-12-01T19:40:00.295Z,-14.12
2022-12-01T19:43:03.354Z,-14.08
2022-12-01T19:46:13.011Z,-14.01
2022-12-01T19:49:16.246Z,-13.96
2022-12-01T19:52:19.425Z,-13.91
2022-12-01T19:55:22.572Z,-13.85
2022-12-01T19:58:26.111Z,-13.84
2022-12-01T20:01:29.686Z,-13.87
2022-12-01T20:04:32.993Z,-13.85
2022-12-01T20:07:36.144Z,-13.89
2022-12-01T20:10:45.925Z,-13.87
2022-12-01T20:13:49.335Z,-13.83
2022-12-01T20:16:54.792Z,-13.83
2022-12-01T20:19:57.923Z,-13.98
2022-12-01T20:23:01.131Z,-14.03
2022-12-01T20:26:07.424Z,-14.03
2022-12-01T20:29:14.063Z,-14.05
2022-12-01T20:32:21.979Z,-14.06
2022-12-01T20:35:26.615Z,-14.15
2022-12-01T20:38:29.695Z,-14.17
2022-12-01T20:41:33.167Z,-14.21
2022-12-01T20:44:36.915Z,-14.21
2022-12-01T20:47:42.001Z,-14.18
2022-12-01T20:50:45.558Z,-14.25
2022-12-01T20:54:19.613Z,-14.29
2022-12-01T20:57:14.830Z,-14.31
2022-12-01T21:00:19.120Z,-14.33
2022-12-01T21:03:22.492Z,-14.39
2022-12-01T21:06:25.781Z,-14.41
2022-12-01T21:09:28.997Z,-14.36
2022-12-01T21:12:51.678Z,-14.35
2022-12-01T21:16:03.457Z,-14.35
2022-12-01T21:19:17.849Z,-14.34
2022-12-01T21:22:21.012Z,-14.34
2022-12-01T21:25:25.145Z,-14.33
2022-12-01T21:28:29.207Z,-14.34
2022-12-01T21:31:33.028Z,-14.32
2022-12-01T21:34:36.391Z,-14.36
2022-12-01T21:37:39.481Z,-14.39
2022-12-01T21:40:44.589Z,-14.38
2022-12-01T21:43:47.707Z,-14.39
2022-12-01T21:46:58.188Z,-14.37
2022-12-01T21:50:07.287Z,-14.36
2022-12-01T21:53:15.628Z,-14.38
2022-12-01T21:56:25.172Z,-14.39
2022-12-01T21:59:28.944Z,-14.35
2022-12-01T22:02:53.695Z,-14.31
2022-12-01T22:06:28.179Z,-14.22
2022-12-01T22:09:28.082Z,-14.29
2022-12-01T22:12:31.792Z,-14.36
2022-12-01T22:15:41.916Z,-14.39
2022-12-01T22:18:54.045Z,-14.37
2022-12-01T22:22:12.546Z,-14.41
2022-12-01T22:25:27.636Z,-14.42
2022-12-01T22:28:30.742Z,-14.46
2022-12-01T22:31:35.329Z,-14.45
2022-12-01T22:34:44.932Z,-14.48
2022-12-01T22:37:53.643Z,-14.47
2022-12-01T22:41:03.132Z,-14.51
2022-12-01T22:44:11.076Z,-14.51
2022-12-01T22:47:15.753Z,-14.47
2022-12-01T22:50:31.045Z,-14.46
2022-12-01T22:53:34.182Z,-14.48
2022-12-01T22:56:46.348Z,-14.44
2022-12-01T22:59:50.944Z,-14.54
2022-12-01T23:02:56.477Z,-14.62
2022-12-01T23:05:59.663Z,-14.62
2022-12-01T23:09:04.186Z,-14.59
2022-12-01T23:12:13.071Z,-14.66
2022-12-01T23:15:33.117Z,-14.77
2022-12-01T23:18:36.225Z,-14.75
2022-12-01T23:21:39.551Z,-14.75
2022-12-01T23:24:42.695Z,-14.81
2022-12-01T23:27:48.927Z,-14.89
2022-12-01T23:30:57.757Z,-14.97
2022-12-01T23:34:00.935Z,-14.97
2022-12-01T23:37:04.101Z,-15.02
2022-12-01T23:40:16.141Z,-15.10
2022-12-01T23:43:29.558Z,-15.14
2022-12-01T23:46:33.601Z,-15.11
2022-12-01T23:49:36.832Z,-15.14
2022-12-01T23:52:39.900Z,-15.20
2022-12-01T23:55:42.991Z,-15.26
2022-12-01T23:58:46.607Z,-15.27
